KPNC/PNC METAR and TAF weather

Enter ICAO airport designator
Station Type Date Time Source
KPNC METAR 2021/09/23 17:53 UTC NOAA

KPNC 231753Z AUTO 19007KT 10SM CLR 27/04 A3008 RMK AO2 SLP177 T02720044 10278 20111 58016


Station Type Date Time Source
KPNC Decoded METAR 2021/09/23 17:53 UTC NOAA

PONCA CITY MUNICIPAL AIRPORT, OK, United States (KPNC) 36-44N 97-06W 308M
Sep 23, 2021 - 01:53 PM EDT / 2021.09.23 1753 UTC
Wind: from the S (190 degrees) at 8 MPH (7 KT):0
Visibility: 10 mile(s):0
Sky conditions: clear
Temperature: 81.0 F (27.2 C)
Dew Point: 39.9 F (4.4 C)
Relative Humidity: 23%
Pressure (altimeter): 30.08 in. Hg (1018 hPa)
Pressure tendency: 0.05 inches (1.6 hPa) lower than three hours ago
ob: KPNC 231753Z AUTO 19007KT 10SM CLR 27/04 A3008 RMK AO2 SLP177 T02720044 10278 20111 58016
cycle: 18

Station Type Date Time Source
KPNC TAF 2021/09/23 18:27 UTC NOAA

TAF KPNC 231723Z 2318/2418 18010KT P6SM FEW250
FM240300 15008KT P6SM SCT250

Example: see airport list